Time;durP1;ratioP1;P1;durP2;ratioP2;P2;SDS_P1;SDS_P2;PMS_P1;PMS_P2;Temp;Humidity;BMP_temperature;BMP_pressure;BME280_temperature;BME280_humidity;BME280_pressure;Samples;Min_cycle;Max_cycle;Signal;HPM_P1;HPM_P2
2022/04/23 00:01:29;;;;;;;7.43;5.15;;;;;;;11.77;66.39;100608.22;5014746;28;20049;-46
2022/04/23 00:03:55;;;;;;;10.18;5.88;;;;;;;11.82;66.47;100600.63;5014681;28;20420;-46
2022/04/23 00:06:20;;;;;;;13.52;5.57;;;;;;;11.75;66.76;100599.84;5014734;28;20106;-45
2022/04/23 00:08:45;;;;;;;12.23;5.70;;;;;;;11.58;67.47;100599.44;5014796;28;20033;-45
2022/04/23 00:11:11;;;;;;;12.63;5.75;;;;;;;11.67;67.13;100592.28;5015075;28;20025;-46
2022/04/23 00:13:38;;;;;;;9.52;5.97;;;;;;;11.69;67.30;100595.47;4996847;28;20108;-45
2022/04/23 00:16:04;;;;;;;11.80;5.95;;;;;;;11.58;67.48;100594.25;5014613;28;20022;-45
2022/04/23 00:18:30;;;;;;;11.57;5.65;;;;;;;11.60;67.98;100594.06;5014729;28;20022;-49
2022/04/23 00:20:55;;;;;;;10.32;6.05;;;;;;;11.53;68.04;100591.47;5014818;28;20032;-46
2022/04/23 00:23:20;;;;;;;9.88;6.00;;;;;;;11.60;67.88;100594.88;5014390;28;20419;-46
2022/04/23 00:25:50;;;;;;;12.27;5.85;;;;;;;11.61;67.99;100598.25;5014421;28;20034;-47
2022/04/23 00:28:17;;;;;;;9.00;5.70;;;;;;;11.49;68.23;100600.63;5014629;28;20022;-46
2022/04/23 00:30:42;;;;;;;10.68;5.72;;;;;;;11.54;68.51;100600.84;5014652;28;20034;-47
2022/04/23 00:33:09;;;;;;;9.30;5.85;;;;;;;11.30;68.86;100597.78;5014030;28;20033;-45
2022/04/23 00:35:36;;;;;;;8.43;5.80;;;;;;;11.35;68.94;100597.22;4996248;28;20018;-45
2022/04/23 00:38:02;;;;;;;10.15;5.82;;;;;;;11.28;69.42;100596.41;4996117;28;20087;-45
2022/04/23 00:40:28;;;;;;;9.95;5.72;;;;;;;11.43;68.99;100593.66;5013769;28;20109;-45
2022/04/23 00:42:55;;;;;;;9.25;6.18;;;;;;;11.30;69.52;100592.63;5013769;28;20022;-46
2022/04/23 00:45:25;;;;;;;11.30;6.60;;;;;;;11.22;69.75;100599.75;5014156;28;20033;-45
2022/04/23 00:47:52;;;;;;;9.93;6.43;;;;;;;11.36;69.76;100598.00;5014300;28;20148;-47
2022/04/23 00:50:21;;;;;;;11.50;6.38;;;;;;;11.17;70.29;100597.78;5013934;28;20038;-46
2022/04/23 00:52:50;;;;;;;10.27;6.88;;;;;;;11.18;70.34;100595.97;5014076;28;20021;-46
2022/04/23 00:55:16;;;;;;;14.98;6.63;;;;;;;11.12;70.38;100602.72;5014066;28;20112;-51
2022/04/23 00:57:41;;;;;;;14.07;7.45;;;;;;;11.17;70.52;100589.22;5013747;28;20037;-47
2022/04/23 01:00:09;;;;;;;11.82;6.95;;;;;;;11.02;71.05;100594.56;5014302;28;20033;-46
2022/04/23 01:02:35;;;;;;;11.75;6.65;;;;;;;11.05;71.51;100594.16;5013706;28;20032;-47
2022/04/23 01:05:01;;;;;;;11.15;7.35;;;;;;;11.13;71.18;100590.59;4996081;28;20026;-47
2022/04/23 01:07:26;;;;;;;14.38;6.82;;;;;;;10.93;71.88;100595.69;5014220;28;20369;-46
2022/04/23 01:09:52;;;;;;;12.05;7.50;;;;;;;11.07;71.39;100587.00;5013367;28;20029;-45
2022/04/23 01:12:19;;;;;;;13.65;8.20;;;;;;;11.11;71.38;100593.38;5014058;28;20021;-46
2022/04/23 01:14:57;;;;;;;13.35;7.97;;;;;;;11.01;71.73;100591.16;5013411;28;20452;-45
2022/04/23 01:17:22;;;;;;;12.40;7.95;;;;;;;10.97;72.62;100592.53;5013431;28;20057;-46
2022/04/23 01:19:48;;;;;;;12.02;7.70;;;;;;;10.96;72.36;100585.78;5012360;28;20085;-46
2022/04/23 01:22:13;;;;;;;12.05;8.30;;;;;;;10.92;72.54;100600.06;5012260;28;20025;-47
2022/04/23 01:24:39;;;;;;;18.05;8.77;;;;;;;11.01;72.33;100591.16;5013490;28;20030;-46
2022/04/23 01:27:05;;;;;;;14.27;8.55;;;;;;;11.00;72.41;100597.31;5013920;28;20084;-47
2022/04/23 01:29:30;;;;;;;13.93;8.73;;;;;;;10.91;72.80;100598.50;5013335;28;20030;-48
2022/04/23 01:31:56;;;;;;;12.75;8.77;;;;;;;11.01;72.62;100596.31;5012868;28;20028;-45
2022/04/23 01:34:21;;;;;;;13.57;8.35;;;;;;;10.93;72.86;100595.69;5013404;28;20060;-45
2022/04/23 01:36:46;;;;;;;17.52;8.55;;;;;;;10.87;73.26;100601.66;5012780;28;20053;-44
2022/04/23 01:39:11;;;;;;;14.82;9.80;;;;;;;10.99;72.87;100598.31;5013703;28;20028;-46
2022/04/23 01:41:37;;;;;;;15.85;9.20;;;;;;;11.00;72.98;100594.75;5013362;28;20030;-47
2022/04/23 01:44:02;;;;;;;16.77;9.65;;;;;;;11.02;72.64;100586.81;5013586;28;20045;-46
2022/04/23 01:46:27;;;;;;;15.30;9.52;;;;;;;10.99;72.96;100587.16;4978921;28;20045;-46
2022/04/23 01:48:53;;;;;;;16.92;10.25;;;;;;;10.93;73.79;100596.50;4995635;28;20022;-47
2022/04/23 01:51:18;;;;;;;17.30;10.38;;;;;;;10.97;73.36;100591.75;5013680;28;20350;-46
2022/04/23 01:53:43;;;;;;;16.95;10.10;;;;;;;11.03;73.25;100603.91;5013601;28;20084;-46
2022/04/23 01:56:09;;;;;;;17.05;10.68;;;;;;;10.89;73.61;100599.66;5013471;28;20030;-46
2022/04/23 01:58:34;;;;;;;19.23;10.68;;;;;;;10.89;73.98;100586.75;5013430;28;20033;-46
2022/04/23 02:01:00;;;;;;;16.60;11.10;;;;;;;10.85;74.08;100594.09;5013250;28;20022;-46
2022/04/23 02:03:26;;;;;;;15.93;10.93;;;;;;;10.82;74.19;100597.84;5015817;28;20080;-45
2022/04/23 02:05:51;;;;;;;16.67;11.02;;;;;;;10.93;73.81;100593.09;5017206;28;20033;-46
2022/04/23 02:08:17;;;;;;;18.60;12.00;;;;;;;10.94;73.97;100595.50;5016830;28;20032;-47
2022/04/23 02:10:43;;;;;;;19.73;11.38;;;;;;;10.90;74.05;100590.91;5017040;28;20029;-46
2022/04/23 02:13:10;;;;;;;18.05;11.55;;;;;;;11.01;74.21;100596.31;5016667;28;20395;-45
2022/04/23 02:15:35;;;;;;;16.65;11.18;;;;;;;11.16;73.17;100596.16;5016759;28;20108;-46
2022/04/23 02:18:01;;;;;;;20.90;11.98;;;;;;;11.07;73.92;100597.34;4999056;28;20129;-46
2022/04/23 02:20:28;;;;;;;21.15;11.65;;;;;;;11.15;73.75;100597.16;5016698;28;20038;-46
2022/04/23 02:22:53;;;;;;;19.60;12.60;;;;;;;11.04;74.09;100582.22;5016263;28;20097;-45
2022/04/23 02:25:20;;;;;;;18.00;12.38;;;;;;;10.99;74.06;100590.56;5016611;28;20112;-46
2022/04/23 02:27:49;;;;;;;20.23;12.68;;;;;;;10.88;74.78;100601.47;4999701;28;20030;-46
2022/04/23 02:30:20;;;;;;;18.55;12.50;;;;;;;11.04;74.69;100593.34;5016744;28;20064;-46
2022/04/23 02:32:47;;;;;;;18.02;12.05;;;;;;;10.93;74.64;100595.69;5016701;28;20026;-45
2022/04/23 02:35:15;;;;;;;20.20;13.05;;;;;;;10.86;74.98;100595.69;5016396;28;20033;-49
2022/04/23 02:37:44;;;;;;;20.50;12.77;;;;;;;10.95;74.77;100594.50;5016393;28;20040;-46
2022/04/23 02:40:10;;;;;;;19.63;13.57;;;;;;;11.12;73.96;100594.97;5016559;28;20175;-45
2022/04/23 02:42:39;;;;;;;19.45;12.80;;;;;;;10.90;74.99;100602.03;5016291;28;20037;-45
2022/04/23 02:45:09;;;;;;;19.70;13.15;;;;;;;10.98;74.53;100585.56;5016142;28;20068;-47
2022/04/23 02:47:48;;;;;;;20.40;13.32;;;;;;;11.11;74.79;100592.59;4999700;28;20516;-46
2022/04/23 02:50:15;;;;;;;19.15;13.30;;;;;;;11.07;74.61;100592.16;4998646;28;20496;-46
2022/04/23 02:52:42;;;;;;;20.65;13.70;;;;;;;10.99;74.67;100590.56;5016026;28;20029;-46
2022/04/23 02:55:07;;;;;;;20.38;13.60;;;;;;;11.06;74.53;100583.63;5016147;28;20037;-46
2022/04/23 02:57:33;;;;;;;22.55;13.75;;;;;;;11.10;74.24;100591.78;4998541;28;20030;-46
2022/04/23 02:59:58;;;;;;;22.63;14.00;;;;;;;11.17;74.18;100587.44;5015971;28;20029;-47
2022/04/23 03:02:23;;;;;;;21.95;14.32;;;;;;;11.19;74.54;100580.28;5016069;28;20053;-47
2022/04/23 03:04:49;;;;;;;19.98;14.25;;;;;;;10.96;75.07;100587.53;5015553;28;20041;-45
2022/04/23 03:07:14;;;;;;;19.42;14.10;;;;;;;10.93;75.31;100588.72;5016433;28;20045;-46
2022/04/23 03:09:39;;;;;;;21.42;14.77;;;;;;;10.86;75.40;100587.13;5016136;28;20084;-46
2022/04/23 03:12:05;;;;;;;20.77;14.68;;;;;;;10.81;76.02;100587.69;4997879;28;20037;-46
2022/04/23 03:14:31;;;;;;;19.65;14.90;;;;;;;10.75;76.09;100591.06;5015541;28;20081;-46
2022/04/23 03:16:56;;;;;;;22.75;14.52;;;;;;;10.78;75.60;100585.50;5015574;28;20469;-46
2022/04/23 03:19:22;;;;;;;20.90;14.63;;;;;;;10.77;75.88;100591.66;5016099;28;20026;-46
2022/04/23 03:21:47;;;;;;;22.83;14.30;;;;;;;10.68;76.73;100596.19;5015768;28;20037;-45
2022/04/23 03:24:12;;;;;;;23.98;15.57;;;;;;;10.54;77.01;100594.53;5015544;28;20410;-51
2022/04/23 03:26:38;;;;;;;22.65;14.82;;;;;;;10.43;77.37;100590.69;5015454;28;20022;-46
2022/04/23 03:29:05;;;;;;;23.35;14.90;;;;;;;10.46;77.69;100587.72;5015434;28;20028;-46
2022/04/23 03:31:30;;;;;;;22.95;15.57;;;;;;;10.49;77.99;100591.72;5015380;28;20088;-46
2022/04/23 03:33:56;;;;;;;23.25;15.23;;;;;;;10.39;78.11;100595.44;4997692;28;20022;-46
2022/04/23 03:36:21;;;;;;;24.27;15.43;;;;;;;10.43;77.97;100595.88;5015321;28;20057;-46
2022/04/23 03:38:46;;;;;;;21.70;15.10;;;;;;;10.35;78.29;100589.06;5015338;28;20033;-46
2022/04/23 03:41:12;;;;;;;21.63;15.23;;;;;;;10.32;78.85;100583.47;5015174;28;20024;-46
2022/04/23 03:43:37;;;;;;;24.30;16.08;;;;;;;10.30;78.42;100588.84;5015159;28;20026;-45
2022/04/23 03:46:03;;;;;;;25.17;15.80;;;;;;;10.36;78.98;100585.50;5015337;28;20029;-46
2022/04/23 03:48:28;;;;;;;20.77;15.10;;;;;;;10.20;79.29;100592.72;5014981;28;20104;-46
2022/04/23 03:50:53;;;;;;;25.85;16.23;;;;;;;10.19;79.32;100598.88;5014917;28;20030;-45
2022/04/23 03:53:18;;;;;;;26.55;16.38;;;;;;;10.12;79.99;100591.06;5015193;28;20029;-46
2022/04/23 03:55:44;;;;;;;25.70;16.55;;;;;;;10.08;79.72;100593.22;5014946;28;20473;-47
2022/04/23 03:58:09;;;;;;;24.45;17.17;;;;;;;10.04;80.04;100594.59;4997153;28;20029;-46
2022/04/23 04:00:34;;;;;;;22.55;16.23;;;;;;;10.01;79.98;100602.72;4997212;28;20125;-47
2022/04/23 04:03:00;;;;;;;24.92;16.75;;;;;;;9.91;80.85;100599.66;4997464;28;20052;-47
2022/04/23 04:05:25;;;;;;;24.25;16.65;;;;;;;9.92;80.33;100589.13;4997052;28;20032;-46
2022/04/23 04:07:51;;;;;;;26.60;17.33;;;;;;;9.89;80.99;100593.88;5014658;28;20295;-46
2022/04/23 04:10:19;;;;;;;24.90;16.67;;;;;;;9.92;80.39;100589.13;5014593;28;20029;-46
2022/04/23 04:12:45;;;;;;;25.50;17.38;;;;;;;9.98;80.16;100597.91;5014534;28;20041;-46
2022/04/23 04:15:12;;;;;;;24.73;17.08;;;;;;;9.77;80.95;100590.22;5015225;28;20072;-45
2022/04/23 04:17:41;;;;;;;22.75;16.25;;;;;;;9.90;81.09;100580.78;5014441;28;20080;-47
2022/04/23 04:20:10;;;;;;;27.92;16.38;;;;;;;9.81;80.64;100589.66;5014518;28;20396;-45
2022/04/23 04:22:36;;;;;;;25.63;16.40;;;;;;;9.70;81.22;100590.16;5014347;28;20026;-46
2022/04/23 04:25:02;;;;;;;26.80;16.70;;;;;;;9.72;81.46;100595.91;4996190;28;20037;-45
2022/04/23 04:27:27;;;;;;;25.63;16.58;;;;;;;9.69;81.70;100583.38;5014306;28;20041;-46
2022/04/23 04:29:53;;;;;;;25.83;16.58;;;;;;;9.60;82.08;100589.66;5014309;28;20030;-45
2022/04/23 04:32:19;;;;;;;30.10;18.05;;;;;;;9.71;81.77;100587.38;5014478;28;20081;-46
2022/04/23 04:34:44;;;;;;;25.17;16.98;;;;;;;9.71;81.60;100581.44;5015204;28;20384;-46
2022/04/23 04:37:11;;;;;;;24.83;16.90;;;;;;;9.62;82.37;100590.28;5014150;28;20026;-46
2022/04/23 04:39:37;;;;;;;25.30;17.30;;;;;;;9.65;82.07;100590.72;4996515;28;20034;-46
2022/04/23 04:42:04;;;;;;;25.48;17.67;;;;;;;9.63;82.04;100584.94;5014151;28;20385;-46
2022/04/23 04:44:29;;;;;;;24.50;16.63;;;;;;;9.62;82.17;100592.88;4996811;28;20117;-46
2022/04/23 04:46:54;;;;;;;25.00;16.92;;;;;;;9.68;82.01;100586.97;5014022;28;20060;-47
2022/04/23 04:49:22;;;;;;;23.58;15.98;;;;;;;9.61;82.13;100593.81;5014002;28;20385;-46
2022/04/23 04:51:47;;;;;;;25.95;17.15;;;;;;;9.67;81.74;100582.78;5013922;28;20026;-47
2022/04/23 04:54:13;;;;;;;25.80;17.00;;;;;;;9.60;82.73;100587.09;5012445;28;20068;-46
2022/04/23 04:56:38;;;;;;;26.48;17.50;;;;;;;9.74;81.82;100585.41;5013762;28;20026;-47
2022/04/23 04:59:04;;;;;;;21.95;15.93;;;;;;;9.86;81.29;100584.72;5014069;28;20112;-46
2022/04/23 05:01:30;;;;;;;25.13;16.70;;;;;;;9.92;81.14;100583.19;5013713;28;20084;-46
2022/04/23 05:03:55;;;;;;;25.02;15.05;;;;;;;9.81;81.20;100592.25;5013711;28;20476;-43
2022/04/23 05:06:20;;;;;;;24.02;16.38;;;;;;;9.70;81.32;100583.22;5013684;28;20024;-45
2022/04/23 05:08:46;;;;;;;22.95;16.55;;;;;;;9.78;81.50;100577.13;5014184;28;20026;-46
2022/04/23 05:11:12;;;;;;;28.88;15.85;;;;;;;9.86;80.71;100579.56;5013695;28;20057;-46
2022/04/23 05:13:38;;;;;;;24.80;16.08;;;;;;;10.00;80.52;100593.38;4995903;28;20045;-46
2022/04/23 05:16:06;;;;;;;23.85;15.50;;;;;;;9.92;80.57;100583.19;5013574;28;20032;-46
2022/04/23 05:18:32;;;;;;;30.20;15.90;;;;;;;10.05;80.39;100575.53;5013790;28;20033;-46
2022/04/23 05:20:57;;;;;;;21.23;15.85;;;;;;;10.07;79.96;100580.50;5013924;28;20045;-45
2022/04/23 05:23:22;;;;;;;23.20;15.65;;;;;;;10.07;79.53;100573.56;4995925;28;20026;-46
2022/04/23 05:25:48;;;;;;;23.85;15.00;;;;;;;10.15;79.32;100588.09;5013861;28;20084;-46
2022/04/23 05:28:13;;;;;;;20.65;15.23;;;;;;;10.12;79.62;100578.94;4995995;28;20030;-46
2022/04/23 05:30:39;;;;;;;21.60;14.98;;;;;;;10.35;78.98;100581.31;5013671;28;20029;-47
2022/04/23 05:33:05;;;;;;;22.20;14.60;;;;;;;10.42;78.40;100585.75;5014033;28;20024;-45
2022/04/23 05:35:30;;;;;;;20.67;14.38;;;;;;;10.35;78.34;100573.56;4996616;28;20026;-45
2022/04/23 05:37:56;;;;;;;20.70;13.82;;;;;;;10.49;77.88;100584.75;5017350;28;20030;-44
2022/04/23 05:40:21;;;;;;;22.63;14.80;;;;;;;10.60;77.38;100578.28;5017425;28;20397;-45
2022/04/23 05:42:46;;;;;;;19.45;13.48;;;;;;;10.39;77.83;100579.16;5017843;28;20080;-45
2022/04/23 05:45:11;;;;;;;19.95;13.93;;;;;;;10.43;77.88;100585.53;5017401;28;20097;-46
2022/04/23 05:47:42;;;;;;;20.40;13.20;;;;;;;10.63;77.27;100580.47;5017856;28;20014;-46
2022/04/23 05:50:09;;;;;;;18.95;12.98;;;;;;;10.54;77.14;100587.59;5017270;28;20108;-45
2022/04/23 05:52:37;;;;;;;19.70;13.80;;;;;;;10.66;76.94;100585.25;5017133;28;20036;-47
2022/04/23 05:55:07;;;;;;;29.38;13.32;;;;;;;10.97;75.91;100577.03;5018205;28;20030;-46
2022/04/23 05:57:32;;;;;;;17.58;13.40;;;;;;;12.46;70.87;100575.91;4999910;28;20388;-46
2022/04/23 05:59:58;;;;;;;15.82;12.02;;;;;;;15.49;60.29;100582.19;4999818;28;20037;-46
2022/04/23 06:02:23;;;;;;;20.90;11.60;;;;;;;16.34;56.34;100580.16;5016931;28;20037;-46
2022/04/23 06:04:49;;;;;;;14.15;11.52;;;;;;;16.61;55.22;100570.03;5017058;28;20064;-46
2022/04/23 06:07:15;;;;;;;14.23;10.70;;;;;;;17.47;52.68;100583.84;5017213;28;20388;-46
2022/04/23 06:09:41;;;;;;;15.23;10.93;;;;;;;18.03;50.79;100579.44;5016629;28;20105;-46
2022/04/23 06:12:07;;;;;;;13.35;11.23;;;;;;;17.04;52.04;100577.38;5017150;28;20034;-46
2022/04/23 06:14:32;;;;;;;13.90;10.38;;;;;;;17.45;52.31;100575.44;5016696;28;20045;-49
2022/04/23 06:16:58;;;;;;;14.05;10.38;;;;;;;17.36;51.94;100579.47;5016768;28;20026;-46
2022/04/23 06:19:23;;;;;;;13.70;10.25;;;;;;;19.13;47.81;100578.63;5017070;28;20100;-46
2022/04/23 06:21:48;;;;;;;17.60;9.73;;;;;;;18.45;48.23;100583.41;5016723;28;20022;-47
2022/04/23 06:24:13;;;;;;;11.43;9.57;;;;;;;19.49;46.54;100571.06;5016628;28;20113;-46
2022/04/23 06:26:39;;;;;;;11.38;9.68;;;;;;;19.32;46.08;100576.44;5016361;28;20101;-44
2022/04/23 06:29:04;;;;;;;11.90;9.88;;;;;;;18.52;47.92;100564.88;5016789;28;20060;-47
2022/04/23 06:31:29;;;;;;;11.90;9.70;;;;;;;18.29;47.53;100579.00;5016565;28;20381;-43
2022/04/23 06:33:54;;;;;;;11.90;9.60;;;;;;;19.53;45.71;100574.75;5015581;28;20096;-46
2022/04/23 06:36:20;;;;;;;12.32;9.75;;;;;;;19.07;45.80;100559.44;5016246;28;20085;-46
2022/04/23 06:38:46;;;;;;;14.00;9.73;;;;;;;18.08;48.20;100572.72;5016662;28;20028;-43
2022/04/23 06:41:11;;;;;;;12.15;9.70;;;;;;;19.45;46.34;100565.53;5015241;28;20026;-47
2022/04/23 06:43:37;;;;;;;10.80;9.40;;;;;;;20.47;44.35;100573.97;4998747;28;20083;-46
2022/04/23 06:46:03;;;;;;;10.70;9.05;;;;;;;20.21;43.71;100573.09;5016360;28;20040;-45
2022/04/23 06:48:28;;;;;;;11.95;9.52;;;;;;;21.41;40.86;100573.91;4981927;28;20437;-45
2022/04/23 06:50:53;;;;;;;11.00;8.93;;;;;;;21.10;41.67;100568.63;5016046;28;20022;-47
2022/04/23 06:53:18;;;;;;;10.32;9.05;;;;;;;20.36;42.50;100566.31;5016050;28;20461;-44
2022/04/23 06:55:44;;;;;;;11.73;8.93;;;;;;;22.58;38.59;100564.88;5016642;28;20095;-46
2022/04/23 06:58:10;;;;;;;11.10;9.48;;;;;;;21.66;39.92;100569.66;5015793;28;20465;-45
2022/04/23 07:00:38;;;;;;;11.05;9.40;;;;;;;21.92;39.58;100565.13;5015742;28;20079;-46
2022/04/23 07:03:03;;;;;;;11.88;9.65;;;;;;;21.10;41.00;100573.88;5016111;28;20033;-45
2022/04/23 07:05:28;;;;;;;13.77;9.95;;;;;;;21.02;41.96;100576.22;5014536;28;20034;-44
2022/04/23 07:08:02;;;;;;;15.23;9.55;;;;;;;20.95;41.87;100576.50;5015050;28;20021;-50
2022/04/23 07:10:28;;;;;;;11.20;9.10;;;;;;;20.89;42.06;100573.06;5015568;28;20022;-46
2022/04/23 07:12:55;;;;;;;11.77;9.77;;;;;;;22.19;38.85;100570.88;5015738;28;20049;-44
2022/04/23 07:15:21;;;;;;;15.43;9.93;;;;;;;20.97;39.73;100566.50;5016271;28;20029;-47
2022/04/23 07:17:47;;;;;;;13.13;9.43;;;;;;;22.74;37.73;100574.28;5015671;28;20022;-46
2022/04/23 07:20:13;;;;;;;12.63;9.32;;;;;;;22.52;37.76;100564.13;5015668;28;20026;-46
2022/04/23 07:22:38;;;;;;;14.07;9.93;;;;;;;22.39;38.46;100551.56;4996638;28;20037;-44
2022/04/23 07:25:04;;;;;;;13.50;9.47;;;;;;;21.71;38.54;100561.78;5015378;28;20038;-47
2022/04/23 07:27:29;;;;;;;17.15;10.30;;;;;;;21.85;38.78;100553.06;5015534;28;20295;-47
2022/04/23 07:29:55;;;;;;;11.50;10.30;;;;;;;20.75;41.95;100551.00;5015437;28;20026;-46
2022/04/23 07:32:21;;;;;;;11.68;9.45;;;;;;;20.59;41.47;100549.38;5015445;28;20021;-45
2022/04/23 07:37:31;;;;;;;12.07;9.77;;;;;;;18.57;45.61;100557.88;5015422;28;20028;-47
2022/04/23 07:40:06;;;;;;;14.93;10.55;;;;;;;20.68;41.63;100548.59;5015165;28;20033;-47
2022/04/23 07:42:31;;;;;;;12.15;9.88;;;;;;;23.25;36.44;100554.72;5015385;28;20108;-48
2022/04/23 07:44:57;;;;;;;17.98;11.50;;;;;;;20.61;40.08;100548.06;4997486;28;20109;-44
2022/04/23 07:47:22;;;;;;;14.77;9.77;;;;;;;20.65;40.83;100548.31;4997478;28;20025;-46
2022/04/23 07:49:48;;;;;;;15.00;11.05;;;;;;;20.86;40.12;100528.13;5013777;28;20029;-49
2022/04/23 07:52:17;;;;;;;13.70;10.85;;;;;;;20.08;41.99;100549.94;5015316;28;20029;-47
2022/04/23 07:54:43;;;;;;;14.25;10.98;;;;;;;20.67;40.40;100552.28;5014821;28;20032;-46
2022/04/23 07:57:09;;;;;;;17.02;11.15;;;;;;;21.00;39.59;100550.22;5014847;28;20029;-46
2022/04/23 07:59:38;;;;;;;14.20;11.32;;;;;;;18.83;45.08;100550.34;5013911;28;20034;-46
2022/04/23 08:02:03;;;;;;;18.73;11.30;;;;;;;19.51;43.10;100553.28;5014777;28;20525;-47
2022/04/23 08:04:29;;;;;;;14.82;11.32;;;;;;;19.69;42.91;100547.63;4997256;28;20152;-46
2022/04/23 08:06:54;;;;;;;16.88;11.02;;;;;;;21.21;40.38;100545.00;4997407;28;20029;-46
2022/04/23 08:09:19;;;;;;;18.80;11.50;;;;;;;20.60;41.83;100538.63;5014189;28;20083;-46
2022/04/23 08:11:44;;;;;;;14.70;10.55;;;;;;;18.61;45.57;100540.66;5014524;28;20026;-46
2022/04/23 08:14:10;;;;;;;15.82;10.65;;;;;;;17.39;47.43;100546.88;5014122;28;20053;-47
2022/04/23 08:16:35;;;;;;;18.90;11.65;;;;;;;16.44;51.03;100539.44;5014343;28;20030;-45
2022/04/23 08:19:01;;;;;;;14.13;11.07;;;;;;;16.70;50.32;100537.31;4996858;28;20079;-47
2022/04/23 08:21:26;;;;;;;17.90;11.18;;;;;;;17.24;49.23;100534.38;5013144;28;20160;-44
2022/04/23 08:23:51;;;;;;;20.33;11.45;;;;;;;17.69;48.11;100539.47;5012760;28;20088;-45
2022/04/23 08:26:17;;;;;;;15.20;11.23;;;;;;;18.98;46.43;100531.34;5012301;28;20049;-46
2022/04/23 08:31:26;;;;;;;16.73;11.30;;;;;;;17.88;46.55;100537.44;5013196;28;20164;-45
2022/04/23 08:34:03;;;;;;;16.52;11.40;;;;;;;17.88;47.71;100521.75;5012788;28;20113;-45
2022/04/23 08:36:31;;;;;;;19.50;12.07;;;;;;;18.61;46.17;100529.41;4996767;28;20022;-44
2022/04/23 08:38:58;;;;;;;13.93;11.48;;;;;;;18.89;45.38;100525.78;5012095;28;20456;-45
2022/04/23 08:41:31;;;;;;;13.68;10.90;;;;;;;18.51;46.12;100524.06;5012764;28;20030;-45
2022/04/23 08:44:05;;;;;;;13.48;10.35;;;;;;;18.58;46.64;100516.81;4994872;28;20029;-44
2022/04/23 08:46:39;;;;;;;13.93;10.82;;;;;;;17.89;48.11;100522.53;4995278;28;20499;-46
2022/04/23 08:49:16;;;;;;;13.48;10.32;;;;;;;18.06;47.50;100518.03;5014015;28;20026;-44
2022/04/23 08:51:45;;;;;;;14.60;10.73;;;;;;;18.16;46.77;100512.94;5013939;28;20029;-45
2022/04/23 08:54:12;;;;;;;14.43;10.65;;;;;;;18.51;46.45;100522.25;5014592;28;20025;-46
2022/04/23 08:56:39;;;;;;;14.80;10.82;;;;;;;18.65;45.99;100512.97;5014124;28;20026;-45
2022/04/23 08:59:06;;;;;;;15.40;11.20;;;;;;;18.52;46.13;100515.97;4995840;28;20496;-45
2022/04/23 09:01:34;;;;;;;15.75;11.23;;;;;;;18.47;46.03;100521.94;5013461;28;20508;-47
2022/04/23 09:04:01;;;;;;;13.60;11.02;;;;;;;18.99;45.08;100509.34;4996079;28;20029;-46
2022/04/23 09:06:43;;;;;;;14.13;11.00;;;;;;;19.50;43.66;100502.66;5013837;28;20428;-46
2022/04/23 09:09:19;;;;;;;14.25;11.20;;;;;;;17.90;46.17;100513.69;4995830;28;20385;-45
2022/04/23 09:11:48;;;;;;;18.08;11.20;;;;;;;17.54;48.09;100500.84;5013583;28;20029;-47
2022/04/23 09:14:27;;;;;;;15.90;11.40;;;;;;;17.50;47.89;100502.38;5013317;28;20068;-45
2022/04/23 09:25:36;;;;;;;16.00;10.95;;;;;;;18.09;45.99;100494.03;5013896;28;20040;-44
2022/04/23 09:28:18;;;;;;;13.50;11.18;;;;;;;18.84;44.47;100487.25;5013631;28;20021;-49
2022/04/23 09:30:46;;;;;;;15.13;11.70;;;;;;;19.26;44.06;100494.38;5013472;28;20026;-45
2022/04/23 09:33:12;;;;;;;13.45;10.98;;;;;;;18.91;45.50;100487.84;5013411;28;20118;-52
2022/04/23 09:36:04;;;;;;;22.42;11.13;;;;;;;18.59;44.53;100494.84;5013842;28;20057;-46
2022/04/23 09:38:30;;;;;;;18.38;12.25;;;;;;;18.22;45.53;100490.28;5010086;28;20480;-47
2022/04/23 09:41:16;;;;;;;14.60;11.32;;;;;;;18.64;44.64;100497.50;5013040;28;20544;-47
2022/04/23 09:43:42;;;;;;;18.08;11.80;;;;;;;19.06;44.59;100500.25;5013124;28;20026;-44
2022/04/23 09:46:09;;;;;;;15.88;11.20;;;;;;;19.26;43.34;100491.78;4996037;28;20037;-46
2022/04/23 09:48:39;;;;;;;16.00;10.95;;;;;;;18.75;44.87;100493.19;5012930;28;20104;-45
2022/04/23 09:51:26;;;;;;;18.70;11.18;;;;;;;18.76;45.62;100492.94;5013374;28;20034;-46
2022/04/23 09:53:53;;;;;;;23.83;10.60;;;;;;;18.65;45.63;100504.31;5013557;28;20030;-47
2022/04/23 09:56:23;;;;;;;13.68;10.52;;;;;;;18.23;45.96;100497.06;5013004;28;20517;-46
2022/04/23 09:58:49;;;;;;;18.35;12.15;;;;;;;18.83;44.26;100488.28;5013427;28;20120;-45
2022/04/23 10:01:21;;;;;;;17.20;10.98;;;;;;;19.66;44.47;100495.72;5013667;28;20030;-47
2022/04/23 10:03:51;;;;;;;15.90;10.93;;;;;;;19.83;43.82;100491.09;5013063;28;20030;-45
2022/04/23 10:06:20;;;;;;;15.85;11.27;;;;;;;18.49;43.52;100493.69;4995434;28;20033;-33
2022/04/23 10:08:49;;;;;;;16.17;10.77;;;;;;;19.97;42.40;100490.63;5012884;28;20041;-42
2022/04/23 10:11:19;;;;;;;18.48;10.80;;;;;;;20.13;41.44;100496.72;5012951;28;20041;-43
2022/04/23 10:13:48;;;;;;;16.33;10.60;;;;;;;19.43;43.30;100482.97;4995275;28;20461;-42
2022/04/23 10:16:13;;;;;;;13.40;9.90;;;;;;;20.56;42.60;100485.03;4995993;28;20038;-42
2022/04/23 10:18:40;;;;;;;21.02;11.35;;;;;;;19.44;42.77;100485.34;5013197;28;20037;-44
2022/04/23 10:21:09;;;;;;;13.45;10.90;;;;;;;19.74;42.09;100484.75;5013214;28;20108;-42
2022/04/23 10:23:43;;;;;;;15.63;10.48;;;;;;;19.85;41.80;100485.56;5015282;28;20037;-42
2022/04/23 10:26:17;;;;;;;17.48;10.88;;;;;;;20.87;39.71;100490.34;4999586;28;20112;-42
2022/04/23 10:28:44;;;;;;;19.73;10.80;;;;;;;20.00;41.24;100484.88;4998956;28;20388;-41
2022/04/23 10:31:17;;;;;;;20.75;11.18;;;;;;;20.24;40.44;100483.38;5016341;28;20022;-42
2022/04/23 10:33:46;;;;;;;13.80;10.43;;;;;;;20.54;40.75;100481.88;5016956;28;20026;-42
2022/04/23 10:36:12;;;;;;;16.52;11.15;;;;;;;20.38;40.73;100481.06;5016120;28;20113;-42
2022/04/23 10:38:40;;;;;;;14.77;11.20;;;;;;;20.64;40.46;100487.16;5015973;28;20101;-41
2022/04/23 10:41:07;;;;;;;14.48;11.00;;;;;;;20.20;40.90;100484.16;5016423;28;20432;-35
2022/04/23 10:43:32;;;;;;;17.90;11.18;;;;;;;19.45;41.53;100480.88;5015932;28;20033;-34
2022/04/23 10:45:59;;;;;;;14.95;11.60;;;;;;;20.01;40.49;100491.69;5014629;28;20385;-33
2022/04/23 10:48:26;;;;;;;19.15;11.88;;;;;;;19.17;42.23;100490.66;5015212;28;20021;-35
2022/04/23 10:51:16;;;;;;;19.88;11.70;;;;;;;19.20;42.94;100481.53;5015982;28;20369;-36
2022/04/23 10:53:41;;;;;;;21.55;12.43;;;;;;;17.82;44.59;100478.28;5016256;28;20021;-35
2022/04/23 10:56:07;;;;;;;20.77;12.25;;;;;;;17.77;45.25;100468.50;5016190;28;20092;-34
2022/04/23 10:58:33;;;;;;;17.13;12.18;;;;;;;18.82;42.87;100476.25;5015979;28;20064;-34
2022/04/23 11:01:26;;;;;;;21.38;12.60;;;;;;;20.08;43.32;100468.63;4998514;28;20112;-35
2022/04/23 11:04:08;;;;;;;21.40;12.30;;;;;;;18.34;43.89;100467.38;5005054;28;20117;-35
2022/04/23 11:12:26;;;;;;;20.65;12.27;;;;;;;19.33;42.25;100458.31;5015864;28;20026;-35
2022/04/23 11:14:55;;;;;;;21.58;12.20;;;;;;;19.13;42.58;100468.63;5015321;28;20136;-35
2022/04/23 11:17:30;;;;;;;17.13;12.30;;;;;;;19.96;39.96;100454.94;4997768;28;20026;-35
2022/04/23 11:19:56;;;;;;;17.83;12.20;;;;;;;20.26;40.89;100472.63;5015769;28;20465;-35
2022/04/23 11:22:22;;;;;;;21.65;13.23;;;;;;;19.25;41.79;100468.44;4998403;28;20032;-36
2022/04/23 11:24:48;;;;;;;20.67;12.43;;;;;;;18.47;43.23;100459.16;5015662;28;20095;-34
2022/04/23 11:27:30;;;;;;;18.98;13.20;;;;;;;18.09;44.30;100462.66;5015250;28;20029;-34
2022/04/23 11:29:55;;;;;;;21.80;12.77;;;;;;;18.53;44.72;100461.78;5015946;28;20030;-34
2022/04/23 11:32:29;;;;;;;21.20;13.52;;;;;;;18.07;43.92;100453.47;5015219;28;20033;-35